Strona główna
METAR-TAF:

METAR-TAF

Lotnisko :

Port lotniczy Lublin

Lublin, Polska

Szerokość geograficzna: 51-13-55N, Długość geograficzna: 22-41-25E, wysokość: 203 m

Aktualna obserwacja pogody

Raport powstał 17 minut temu, godzina 07:00 UTC
Wiatr 1 kt z kierunków zmiennych
Temperatura 10°C
Wilgotność 93%
Ciśnienie 1024 hPa
Widzialność: 4000 m
Mało chmury na wysokości 1300 ft
zamglenie

METAR: EPLB 200700Z VRB01KT 4000 BR FEW013 10/09 Q1024

czas: 09:17 (07:17 UTC)

Prognoza

Raport powstał 1 godzina i 47 minut temu, godzina 05:30 UTC
Prognoza ważna od 20 godzina 06 UTC do 20 godzina 15 UTC
Wiatr 5 kt od północny zachód
Widzialność: 3000 m
Przerywane chmury na wysokości 1100 ft
zamglenie
Stopniowe zmiany
od 20 godzina 06 UTC do 20 godzina 08 UTC
Widzialność 10 km lub więcej
Przerywane chmury na wysokości 3000 ft

TAF: EPLB 200530Z 2006/2015 31005KT 3000 BR BKN011 BECMG 2006/2008 9999 BKN030

Obserwacja i prognoza pogody dla ponad 4000 lotnisk (raport METAR i TAF).

Dostępne stacje oznaczono żółtymi i czerwonymi punktami na mapie.

Najedź kursorem aby zobaczyć nazwę stacji.

Kliknij aby zobaczyć obserwacje i prognozy pogody.

Aby zmienić mapę: kliknij na zielony przycisk z czarnym krzyżykiem, aby powiększyć; na zielony przycisk z myślnikiem, aby pomniejszyć; na zielone strzałki, aby przejść do map sąsiednich.


METAR-TAF: